Terminal Aerodrome Forecast
Issued by NWS Pittsburgh, PA

Current Version | Previous Version | Graphics & Text | Print | Product List | Glossary On
Versions: 1 2 3 4 5 6 7 8 9 10 11 12 13 14 15 16 17 18 19 20 21 22 23 24 25 26 27 28 29 30 31 32 33 34 35 36 37 38
000
FTUS41 KPBZ 280200 AAA
TAFPIT
TAF AMD
KPIT 280215Z 2802/2906 VRB04KT 4SM -TSRA BR BKN020CB OVC030
      TEMPO 2802/2804 2SM TSRA OVC015CB
     FM280430 28010KT 5SM BR SCT050
     FM280600 29005KT 5SM BR BKN015
     FM280900 30009KT 4SM BR OVC007
     FM281500 31013KT P6SM VCSH BKN025=

USA.gov is the U.S. government's official web portal to all federal, state and local government web resources and services.